NCAR-RAP Real-Time Weather Data

Output produced by METARs form (21 May 2019  10:56 UTC)
found at http://weather.rap.ucar.edu/surface/
 
RJCK 211035Z 17020KT 0200 R17/0500V0750N FG -SHRA VV001 10/10 Q1004 RMK A2966
RJCK 211011Z 18019KT 0200 R35/0325N FG -SHRA VV001 10/10 Q1004 RMK A2965
RJCK 211006Z 18020KT 0200 R17/0400N FG -SHRA VV001 10/10 Q1004 RMK A2966
RJCK 211003Z 18020KT 0200 R17/0350V0450N FG -SHRA VV001 10/10 Q1004 RMK A2966
RJCK 211000Z 18020KT 0200 R17/0350V0500N FG -SHRA VV001 10/10 Q1004
RJCK 210900Z 18019KT 0200 R17/0450N FG -SHRA VV001 10/10 Q1004
RJCK 210821Z 18018KT 0200 R17/0500V0600N FG -SHRA VV001 10/10 Q1004 RMK A2967
RJCK 210811Z 18018KT 0200 R17/0400V0650U FG -SHRA VV001 10/10 Q1004 RMK A2967
RJCK 210800Z 18018KT 0200 R17/0400N FG -SHRA VV001 10/10 Q1004
RJCK 210740Z 18019G29KT 0200 R17/0400N FG -SHRA VV001 10/10 Q1005 RMK A2968
RJCK 210734Z 18020KT 0200 R17/0375N FG -SHRA VV001 10/10 Q1005 RMK A2968
RJCK 210700Z 18023KT 0200 R17/0500N FG -SHRA VV001 10/10 Q1005
RJCK 210651Z 18023KT 0200 R17/0500V0600N FG -SHRA VV001 10/10 Q1005 RMK A2969
RJCK 210600Z 18024G35KT 0300 R17/0600N FG -SHRA VV001 10/10 Q1005
RJCK 210536Z 18024KT 0400 R17/0700V0900N FG -SHRA VV001 10/10 Q1005 RMK A2969
RJCK 210517Z 17024G37KT 0500 R17/0900V1100N FG -SHRA BKN001 BKN002 10/10 Q1005 RMK 6ST001 7ST002 A2969
RJCK 210500Z 17025G35KT 0500 R17/0900V1200D FG -SHRA BKN001 BKN002 10/10 Q1005
RJCK 210447Z 17024KT 0500 R17/1100N FG SHRA BKN001 BKN002 10/10 Q1005 RMK 6ST001 7ST002 A2970
RJCK 210444Z 18024KT 0500 R17/1200U FG SHRA BKN001 BKN002 10/10 Q1005 RMK 6ST001 7ST002 A2970
RJCK 210437Z 18024G34KT 0500 R17/1000V1400D FG -SHRA BKN001 BKN002 10/10 Q1005 RMK 6ST001 7ST002 A2970
RJCK 210424Z 17023G34KT 0800 R17/1400D FG SHRA BKN001 BKN002 10/10 Q1006 RMK 6ST001 7ST002 A2971
RJCK 210419Z 17024G36KT 0800 R17/1500N FG -SHRA BKN001 BKN002 10/10 Q1006 RMK 6ST001 7ST002 A2971
RJCK 210400Z 18022G33KT 0800 R17/1600N FG -SHRA BKN001 BKN002 10/10 Q1006
RJCK 210333Z 18021KT 0900 R17/1400V1800D FG -SHRA BKN001 BKN002 10/10 Q1006 RMK 5ST001 7ST002 A2973
RJCK 210326Z 17021KT 1000 R17/1600U BCFG -SHRA BR SCT001 BKN002 BKN003 10/10 Q1006 RMK 4ST001 6ST002 7ST003 A2973
RJCK 210314Z 17021KT 1200 R17/1400V1800D BCFG -SHRA BR SCT001 BKN002 BKN003 10/10 Q1007 RMK 4ST001 6ST002 7ST003 A2974
RJCK 210300Z 17021KT 1400 R17/P2000N BCFG -SHRA BR SCT001 BKN002 BKN003 10/10 Q1007
RJCK 210240Z 18022KT 2300 BCFG BR FEW001 SCT002 BKN003 10/10 Q1007 RMK 2ST001 4ST002 7ST003 A2975
RJCK 210208Z 17021KT 3100 BCFG BR FEW001 SCT002 BKN003 11/10 Q1007 RMK 2ST001 3ST002 6ST003 A2975
RJCK 210200Z 17022G32KT 3500 BR FEW001 BKN003 BKN004 11/10 Q1007
RJCK 210142Z 17020KT 4900 BR FEW001 SCT003 BKN004 11/10 Q1007 RMK 1ST001 4ST003 6ST004 A2976
RJCK 210100Z 19011G21KT 160V230 6000 FEW001 SCT003 BKN004 11/10 Q1008
RJCK 210026Z 19014KT 5000 BR FEW001 SCT003 BKN004 10/09 Q1009 RMK 1ST001 4ST003 6ST004 A2979
RJCK 210000Z 19016KT 150V220 4000 BCFG BR FEW001 SCT002 BKN003 11/09 Q1009
RJCK 202337Z 19016G26KT 150V210 3200 BCFG BR FEW001 SCT002 BKN003 11/10 Q1009 RMK 1ST001 4ST002 6ST003 A2981
RJCK 202326Z 18017KT 2500 BCFG BR FEW001 SCT002 BKN003 11/10 Q1009 RMK 2ST001 4ST002 6ST003 A2981
RJCK 202321Z 18016KT 2400 BCFG BR FEW001 BKN002 BKN003 11/10 Q1009 RMK 2ST001 5ST002 6ST003 A2981
RJCK 202300Z 18018KT 2300 BCFG BR FEW001 BKN002 BKN003 10/10 Q1009
RJCK 202223Z 18019KT 2400 BCFG BR FEW001 SCT002 BKN003 11/10 Q1009 RMK 2ST001 4ST002 6ST003 A2981
RJCK 202218Z 18018G28KT 160V220 1600 BCFG BR SCT001 BKN002 BKN003 11/10 Q1009 RMK 3ST001 5ST002 7ST003 A2981
RJCK 202200Z 18017KT 1500 R17/P2000N BCFG BR SCT001 BKN002 BKN003 10/10 Q1009
RJCK 202145Z 17020KT 2000 BCFG BR FEW001 SCT002 BKN003 10/10 Q1009 RMK 2ST001 4ST002 7ST003 A2982
RJCK 201135Z 18013KT 4900 BR FEW001 SCT002 BKN003 10/09 Q1016 RMK 1ST001 4ST002 7ST003 A3002
RJCK 201123Z 18017G27KT 150V210 5000 BR FEW001 SCT002 BKN003 10/09 Q1016 RMK 1ST001 4ST002 6ST003 A3003
RJCK 201100Z 18011KT 160V220 4000 BR FEW001 SCT002 BKN003 10/09 Q1017
RJCK 201050Z 18011KT 4000 BR FEW001 SCT002 BKN003 10/09 Q1017 RMK 1ST001 4ST002 7ST003 A3003
RJCK 201028Z 18011KT 3200 BR FEW001 BKN002 BKN003 10/09 Q1017 RMK 1ST001 5ST002 7ST003 A3003
RJCK 201010Z 18009KT 3100 BR FEW001 BKN002 BKN003 10/09 Q1017 RMK 1ST001 5ST002 7ST003 A3003
RJCK 201000Z 19012KT 150V220 4000 BR FEW001 SCT002 BKN003 10/09 Q1017
RJCK 200940Z 19011KT 150V220 4500 BR FEW001 BKN003 BKN004 10/09 Q1016 RMK 1ST001 5ST003 7ST004 A3003
RJCK 200932Z 19012KT 160V230 4900 BR FEW001 SCT003 BKN004 10/10 Q1017 RMK 1ST001 4ST003 6ST004 A3003
RJCK 200900Z 19015KT 6000 FEW001 SCT003 BKN004 11/10 Q1017
RJCK 200843Z 19016KT 160V220 6000 FEW002 BKN004 BKN005 11/10 Q1016 RMK 1ST002 5ST004 6ST005 A3003
RJCK 200821Z 19015KT 150V220 7000 FEW003 BKN005 BKN006 11/10 Q1016 RMK 1ST003 5ST005 6ST006 A3003
RJCK 200800Z 20011KT 8000 FEW004 SCT006 BKN008 11/10 Q1016
RJCK 200721Z 17019KT 9999 FEW005 BKN009 BKN020 12/10 Q1016 RMK 1ST005 5ST009 6CU020 A3002
RJCK 200700Z 19016G26KT 9999 FEW005 SCT010 BKN020 13/10 Q1016
RJCK 200600Z 19019KT 9999 FEW005 SCT010 BKN030 13/10 Q1016
RJCK 200500Z 19020KT 9999 FEW005 SCT010 BKN030 14/11 Q1017
RJCK 200431Z 19019G30KT 150V220 9999 FEW003 SCT007 BKN010 14/11 Q1017 RMK 1ST003 4ST007 5ST010 A3004
RJCK 200400Z 20016G27KT 9999 FEW002 SCT005 BKN007 15/12 Q1018
RJCK 200300Z 20018KT 8000 FEW001 SCT005 BKN006 13/10 Q1018
RJCK 200220Z 19017KT 8000 FEW001 SCT005 BKN006 13/10 Q1018 RMK 1ST001 4ST005 6ST006 A3008
RJCK 200200Z 19016KT 8000 FEW001 SCT004 BKN005 12/10 Q1018
RJCK 200100Z 19016G26KT 7000 FEW001 SCT003 BKN004 12/10 Q1018
RJCK 200022Z 19016KT 9999 FEW001 SCT004 BKN005 12/10 Q1019 RMK 1ST001 4ST004 6ST005 A3010
RJCK 200000Z 19014KT 8000 PRFG FEW001 SCT003 BKN004 12/10 Q1019
RJCK 192300Z 19014KT 6000 FEW001 SCT002 BKN003 12/11 Q1019
RJCK 192248Z 20012KT 5000 BR FEW001 SCT002 BKN003 12/11 Q1019 RMK 1ST001 3ST002 7ST003 A3010
RJCK 192246Z 20011KT 3200 BCFG BR FEW001 SCT002 BKN003 11/11 Q1019 RMK 1ST001 4ST002 6ST003 A3010
RJCK 192243Z 20011KT 2400 R17/P2000U BCFG BR FEW001 SCT002 BKN003 11/11 Q1019 RMK 2ST001 4ST002 6ST003 A3010
RJCK 192241Z 20011KT 1600 R17/0900VP2000U BCFG BR SCT001 BKN002 BKN003 11/11 Q1019 RMK 4ST001 5ST002 7ST003 A3010
RJCK 192239Z 20011KT 1500 R17/0900VP2000U BCFG BR SCT001 BKN002 BKN003 11/11 Q1019 RMK 4ST001 6ST002 7ST003 A3010
RJCK 192236Z 19012KT 1200 R17/0700VP2000U BCFG BR BKN001 BKN002 11/11 Q1019 RMK 5ST001 7ST002 A3010
RJCK 192234Z 19012KT 1000 R17/0700VP2000U BCFG BR BKN001 BKN002 10/10 Q1019 RMK 6ST001 7ST002 A3010
RJCK 192231Z 19012KT 0800 R17/0600V1400U FG BKN001 BKN002 10/10 Q1019 RMK 6ST001 7ST002 A3010
RJCK 192216Z 19011KT 0200 R35/0300V0550N FG VV001 10/10 Q1019 RMK A3011
RJCK 192208Z 19010KT 0200 R35/0275V0450N FG VV001 10/10 Q1019 RMK A3011
RJCK 192207Z 19010KT 0200 R17/0325V1200U FG VV001 10/10 Q1019 RMK A3011
RJCK 192200Z 19011KT 0200 R17/0300V0600N FG VV001 10/10 Q1019
RJCK 192148Z 19010KT 160V220 0200 R17/0400V0700N FG VV001 10/10 Q1019 RMK A3011
RJCK 192146Z 19010KT 160V220 0200 R17/0400V0750U FG VV001 09/09 Q1019 RMK A3011
RJCK 192145Z 19010KT 160V220 0200 R17/0400V0750U FG VV001 10/10 Q1019 RMK A3011
RJCK 191131Z 20011KT 8000 FEW003 BKN005 BKN006 10/09 Q1021 RMK 1ST003 5ST005 6ST006 A3018
RJCK 191100Z 20012KT 8000 FEW003 SCT005 BKN006 10/10 Q1022
RJCK 191000Z 20012KT 8000 FEW003 SCT005 BKN009 11/10 Q1021
RJCK 190943Z 20011KT 9999 FEW003 SCT006 BKN009 11/10 Q1021 RMK 1ST003 3ST006 5ST009 A3017
RJCK 190900Z 20011KT 9999 FEW008 SCT012 BKN/// 12/10 Q1021
RJCK 190800Z 20011KT 9999 FEW008 SCT012 BKN/// 13/11 Q1021
RJCK 190700Z 20014KT 9999 FEW008 SCT015 BKN/// 14/11 Q1021
RJCK 190600Z 20013KT 9999 FEW008 SCT030 BKN/// 14/10 Q1021
RJCK 190500Z 19014KT 9999 FEW008 SCT020 BKN/// 14/10 Q1021
RJCK 190400Z 18015KT 9999 FEW008 SCT015 BKN/// 14/10 Q1022
RJCK 190300Z 20016KT 9999 FEW008 SCT012 BKN/// 14/10 Q1022
RJCK 190200Z 20011KT 160V240 9999 FEW008 SCT012 BKN/// 14/11 Q1022
RJCK 190115Z 19011KT 150V220 9999 FEW003 SCT006 BKN012 13/10 Q1022 RMK 1ST003 4ST006 6ST012 A3021
RJCK 190100Z 20012KT 9999 FEW003 SCT005 BKN006 12/10 Q1023
RJCK 190006Z 18009KT 8000 FEW003 SCT005 BKN006 12/11 Q1023 RMK 1ST003 4ST005 6ST006 A3021
RJCK 190000Z 18008KT 8000 FEW002 SCT004 BKN005 12/11 Q1023
RJCK 182346Z 18009KT 5000 BR FEW002 SCT003 BKN004 11/11 Q1023 RMK 1ST002 3ST003 7ST004 A3021
RJCK 182342Z 18008KT 3200 BCFG BR FEW001 SCT003 BKN004 11/11 Q1023 RMK 1ST001 3ST003 7ST004 A3021
RJCK 182332Z 18007KT 2400 R17/P2000N BCFG BR FEW001 SCT003 BKN004 11/11 Q1023 RMK 1ST001 4ST003 6ST004 A3021
RJCK 182324Z 19005KT 150V230 1600 R17/1500VP2000U BCFG BR FEW001 SCT002 BKN003 11/11 Q1023 RMK 2ST001 4ST002 6ST003 A3023
RJCK 182321Z 19005KT 150V230 1500 R17/1500VP2000U BCFG BR SCT001 BKN002 BKN003 11/11 Q1023 RMK 3ST001 5ST002 7ST003 A3023
RJCK 182318Z 19006KT 150V220 1000 R17/1200VP2000U BCFG BR SCT001 BKN002 BKN003 10/10 Q1023 RMK 4ST001 6ST002 7ST003 A3023
RJCK 182310Z 19007KT 0800 R17/1200U FG BKN001 BKN002 10/10 Q1023 RMK 6ST001 7ST002 A3023
RJCK 182302Z 18005KT 0500 R17/0750V1200U FG VV001 10/10 Q1023 RMK A3023
RJCK 182300Z 18005KT 0500 R17/0750V1200N FG VV001 10/10 Q1023